sensor_id;sensor_type;location;lat;lon;timestamp;temperature;humidity
2639;DHT22;1329;51.384;7.122;2023-07-16T00:02:11;22.80;1.00
2639;DHT22;1329;51.384;7.122;2023-07-16T00:04:38;22.80;1.00
2639;DHT22;1329;51.384;7.122;2023-07-16T00:07:07;22.80;1.00
2639;DHT22;1329;51.384;7.122;2023-07-16T00:09:38;22.80;1.00
2639;DHT22;1329;51.384;7.122;2023-07-16T00:12:06;22.80;1.00
2639;DHT22;1329;51.384;7.122;2023-07-16T00:14:34;22.80;1.00
2639;DHT22;1329;51.384;7.122;2023-07-16T00:17:02;22.70;1.00
2639;DHT22;1329;51.384;7.122;2023-07-16T00:19:29;22.70;1.00
2639;DHT22;1329;51.384;7.122;2023-07-16T00:21:56;22.70;1.00
2639;DHT22;1329;51.384;7.122;2023-07-16T00:24:27;22.70;1.00
2639;DHT22;1329;51.384;7.122;2023-07-16T00:26:54;22.70;1.00
2639;DHT22;1329;51.384;7.122;2023-07-16T00:29:21;22.70;1.00
2639;DHT22;1329;51.384;7.122;2023-07-16T00:31:48;22.70;1.00
2639;DHT22;1329;51.384;7.122;2023-07-16T00:34:17;22.70;1.00
2639;DHT22;1329;51.384;7.122;2023-07-16T00:36:44;22.60;1.00
2639;DHT22;1329;51.384;7.122;2023-07-16T00:39:11;22.70;1.00
2639;DHT22;1329;51.384;7.122;2023-07-16T00:41:40;22.60;1.00
2639;DHT22;1329;51.384;7.122;2023-07-16T00:44:07;22.70;1.00
2639;DHT22;1329;51.384;7.122;2023-07-16T00:46:34;22.60;1.00
2639;DHT22;1329;51.384;7.122;2023-07-16T00:49:01;22.60;1.00
2639;DHT22;1329;51.384;7.122;2023-07-16T00:51:29;22.60;1.00
2639;DHT22;1329;51.384;7.122;2023-07-16T00:53:56;22.60;1.00
2639;DHT22;1329;51.384;7.122;2023-07-16T00:56:23;22.60;1.00
2639;DHT22;1329;51.384;7.122;2023-07-16T00:58:51;22.60;1.00
2639;DHT22;1329;51.384;7.122;2023-07-16T01:01:18;22.60;1.00
2639;DHT22;1329;51.384;7.122;2023-07-16T01:03:45;22.60;1.00
2639;DHT22;1329;51.384;7.122;2023-07-16T01:06:15;22.60;1.00
2639;DHT22;1329;51.384;7.122;2023-07-16T01:08:46;22.50;1.00
2639;DHT22;1329;51.384;7.122;2023-07-16T01:11:16;22.50;1.00
2639;DHT22;1329;51.384;7.122;2023-07-16T01:13:43;22.40;1.00
2639;DHT22;1329;51.384;7.122;2023-07-16T01:16:19;22.30;1.00
2639;DHT22;1329;51.384;7.122;2023-07-16T01:18:47;22.30;1.00
2639;DHT22;1329;51.384;7.122;2023-07-16T01:21:14;22.30;1.00
2639;DHT22;1329;51.384;7.122;2023-07-16T01:24:00;22.20;1.00
2639;DHT22;1329;51.384;7.122;2023-07-16T01:26:49;22.20;1.00
2639;DHT22;1329;51.384;7.122;2023-07-16T01:29:28;22.20;1.00
2639;DHT22;1329;51.384;7.122;2023-07-16T01:31:56;22.20;1.00
2639;DHT22;1329;51.384;7.122;2023-07-16T01:34:28;22.10;1.00
2639;DHT22;1329;51.384;7.122;2023-07-16T01:36:58;22.10;1.00
2639;DHT22;1329;51.384;7.122;2023-07-16T01:39:26;22.10;1.00
2639;DHT22;1329;51.384;7.122;2023-07-16T01:41:52;22.00;1.00
2639;DHT22;1329;51.384;7.122;2023-07-16T01:44:19;22.00;1.00
2639;DHT22;1329;51.384;7.122;2023-07-16T01:46:59;22.00;1.00
2639;DHT22;1329;51.384;7.122;2023-07-16T01:49:32;22.00;1.00
2639;DHT22;1329;51.384;7.122;2023-07-16T01:52:00;21.90;1.00
2639;DHT22;1329;51.384;7.122;2023-07-16T01:54:28;21.90;1.00
2639;DHT22;1329;51.384;7.122;2023-07-16T01:56:55;21.80;1.00
2639;DHT22;1329;51.384;7.122;2023-07-16T01:59:22;21.80;1.00
2639;DHT22;1329;51.384;7.122;2023-07-16T02:01:50;21.80;1.00
2639;DHT22;1329;51.384;7.122;2023-07-16T02:04:17;21.80;1.00
2639;DHT22;1329;51.384;7.122;2023-07-16T02:06:44;21.80;1.00
2639;DHT22;1329;51.384;7.122;2023-07-16T02:09:11;21.80;1.00
2639;DHT22;1329;51.384;7.122;2023-07-16T02:11:38;21.80;1.00
2639;DHT22;1329;51.384;7.122;2023-07-16T02:14:05;21.80;1.00
2639;DHT22;1329;51.384;7.122;2023-07-16T02:16:32;21.80;1.00
2639;DHT22;1329;51.384;7.122;2023-07-16T02:19:00;21.80;1.00
2639;DHT22;1329;51.384;7.122;2023-07-16T02:21:27;21.90;1.00
2639;DHT22;1329;51.384;7.122;2023-07-16T02:23:54;21.80;1.00
2639;DHT22;1329;51.384;7.122;2023-07-16T02:26:20;21.80;1.00
2639;DHT22;1329;51.384;7.122;2023-07-16T02:28:47;21.80;1.00
2639;DHT22;1329;51.384;7.122;2023-07-16T02:31:14;21.80;1.00
2639;DHT22;1329;51.384;7.122;2023-07-16T02:33:41;21.80;1.00
2639;DHT22;1329;51.384;7.122;2023-07-16T02:36:10;21.90;1.00
2639;DHT22;1329;51.384;7.122;2023-07-16T02:38:37;21.90;1.00
2639;DHT22;1329;51.384;7.122;2023-07-16T02:41:04;21.90;1.00
2639;DHT22;1329;51.384;7.122;2023-07-16T02:43:31;21.90;1.00
2639;DHT22;1329;51.384;7.122;2023-07-16T02:45:58;21.90;1.00
2639;DHT22;1329;51.384;7.122;2023-07-16T02:48:25;21.90;1.00
2639;DHT22;1329;51.384;7.122;2023-07-16T02:50:52;21.90;1.00
2639;DHT22;1329;51.384;7.122;2023-07-16T02:53:20;21.90;1.00
2639;DHT22;1329;51.384;7.122;2023-07-16T02:55:47;21.80;1.00
2639;DHT22;1329;51.384;7.122;2023-07-16T02:58:13;21.90;1.00
2639;DHT22;1329;51.384;7.122;2023-07-16T03:00:41;21.90;1.00
2639;DHT22;1329;51.384;7.122;2023-07-16T03:03:07;21.90;1.00
2639;DHT22;1329;51.384;7.122;2023-07-16T03:05:35;21.90;1.00
2639;DHT22;1329;51.384;7.122;2023-07-16T03:08:01;21.90;1.00
2639;DHT22;1329;51.384;7.122;2023-07-16T03:10:30;21.80;1.00
2639;DHT22;1329;51.384;7.122;2023-07-16T03:12:57;21.70;1.00
2639;DHT22;1329;51.384;7.122;2023-07-16T03:15:24;21.70;1.00
2639;DHT22;1329;51.384;7.122;2023-07-16T03:17:51;21.70;1.00
2639;DHT22;1329;51.384;7.122;2023-07-16T03:20:18;21.60;1.00
2639;DHT22;1329;51.384;7.122;2023-07-16T03:22:45;21.60;1.00
2639;DHT22;1329;51.384;7.122;2023-07-16T03:25:12;21.50;1.00
2639;DHT22;1329;51.384;7.122;2023-07-16T03:27:40;21.50;1.00
2639;DHT22;1329;51.384;7.122;2023-07-16T03:30:08;21.40;1.00
2639;DHT22;1329;51.384;7.122;2023-07-16T03:32:35;21.40;1.00
2639;DHT22;1329;51.384;7.122;2023-07-16T03:35:02;21.30;1.00
2639;DHT22;1329;51.384;7.122;2023-07-16T03:37:31;21.30;1.00
2639;DHT22;1329;51.384;7.122;2023-07-16T03:40:12;21.30;1.00
2639;DHT22;1329;51.384;7.122;2023-07-16T03:42:41;21.20;1.00
2639;DHT22;1329;51.384;7.122;2023-07-16T03:45:09;21.20;1.00
2639;DHT22;1329;51.384;7.122;2023-07-16T03:47:36;21.10;1.00
2639;DHT22;1329;51.384;7.122;2023-07-16T03:50:04;21.10;1.00
2639;DHT22;1329;51.384;7.122;2023-07-16T03:52:31;21.10;1.00
2639;DHT22;1329;51.384;7.122;2023-07-16T03:54:58;21.00;1.00
2639;DHT22;1329;51.384;7.122;2023-07-16T03:57:27;21.00;1.00
2639;DHT22;1329;51.384;7.122;2023-07-16T03:59:55;21.00;1.00
2639;DHT22;1329;51.384;7.122;2023-07-16T04:02:23;21.00;1.00
2639;DHT22;1329;51.384;7.122;2023-07-16T04:04:51;21.00;1.00
2639;DHT22;1329;51.384;7.122;2023-07-16T04:07:18;20.90;1.00
2639;DHT22;1329;51.384;7.122;2023-07-16T04:09:45;20.90;1.00
2639;DHT22;1329;51.384;7.122;2023-07-16T04:12:12;20.90;1.00
2639;DHT22;1329;51.384;7.122;2023-07-16T04:14:39;20.90;1.00
2639;DHT22;1329;51.384;7.122;2023-07-16T04:17:07;20.90;1.00
2639;DHT22;1329;51.384;7.122;2023-07-16T04:19:34;20.90;1.00
2639;DHT22;1329;51.384;7.122;2023-07-16T04:22:01;20.80;1.00
2639;DHT22;1329;51.384;7.122;2023-07-16T04:24:27;20.80;1.00
2639;DHT22;1329;51.384;7.122;2023-07-16T04:26:55;20.80;1.00
2639;DHT22;1329;51.384;7.122;2023-07-16T04:29:22;20.80;1.00
2639;DHT22;1329;51.384;7.122;2023-07-16T04:31:49;20.80;1.00
2639;DHT22;1329;51.384;7.122;2023-07-16T04:34:17;20.80;1.00
2639;DHT22;1329;51.384;7.122;2023-07-16T04:36:44;20.70;1.00
2639;DHT22;1329;51.384;7.122;2023-07-16T04:39:11;20.80;1.00
2639;DHT22;1329;51.384;7.122;2023-07-16T04:41:38;20.70;1.00
2639;DHT22;1329;51.384;7.122;2023-07-16T04:44:05;20.70;1.00
2639;DHT22;1329;51.384;7.122;2023-07-16T04:46:32;20.70;1.00
2639;DHT22;1329;51.384;7.122;2023-07-16T04:48:59;20.70;1.00
2639;DHT22;1329;51.384;7.122;2023-07-16T04:51:29;20.70;1.00
2639;DHT22;1329;51.384;7.122;2023-07-16T04:53:56;20.70;1.00
2639;DHT22;1329;51.384;7.122;2023-07-16T04:56:23;20.60;1.00
2639;DHT22;1329;51.384;7.122;2023-07-16T04:58:49;20.60;1.00
2639;DHT22;1329;51.384;7.122;2023-07-16T05:01:16;20.50;1.00
2639;DHT22;1329;51.384;7.122;2023-07-16T05:03:43;20.60;1.00
2639;DHT22;1329;51.384;7.122;2023-07-16T05:06:10;20.60;1.00
2639;DHT22;1329;51.384;7.122;2023-07-16T05:08:38;20.60;1.00
2639;DHT22;1329;51.384;7.122;2023-07-16T05:11:05;20.60;1.00
2639;DHT22;1329;51.384;7.122;2023-07-16T05:13:32;20.60;1.00
2639;DHT22;1329;51.384;7.122;2023-07-16T05:15:59;20.60;1.00
2639;DHT22;1329;51.384;7.122;2023-07-16T05:18:26;20.60;1.00
2639;DHT22;1329;51.384;7.122;2023-07-16T05:20:52;20.60;1.00
2639;DHT22;1329;51.384;7.122;2023-07-16T05:23:20;20.60;1.00
2639;DHT22;1329;51.384;7.122;2023-07-16T05:25:49;20.50;1.00
2639;DHT22;1329;51.384;7.122;2023-07-16T05:28:17;20.60;1.00
2639;DHT22;1329;51.384;7.122;2023-07-16T05:30:44;20.60;1.00
2639;DHT22;1329;51.384;7.122;2023-07-16T05:33:11;20.60;1.00
2639;DHT22;1329;51.384;7.122;2023-07-16T05:35:39;20.70;1.00
2639;DHT22;1329;51.384;7.122;2023-07-16T05:38:06;20.70;1.00
2639;DHT22;1329;51.384;7.122;2023-07-16T05:40:33;20.70;1.00
2639;DHT22;1329;51.384;7.122;2023-07-16T05:43:02;20.70;1.00
2639;DHT22;1329;51.384;7.122;2023-07-16T05:45:29;20.70;1.00
2639;DHT22;1329;51.384;7.122;2023-07-16T05:47:56;20.70;1.00
2639;DHT22;1329;51.384;7.122;2023-07-16T05:50:23;20.70;1.00
2639;DHT22;1329;51.384;7.122;2023-07-16T05:52:49;20.70;1.00
2639;DHT22;1329;51.384;7.122;2023-07-16T05:55:17;20.80;1.00
2639;DHT22;1329;51.384;7.122;2023-07-16T05:57:44;20.80;1.00
2639;DHT22;1329;51.384;7.122;2023-07-16T06:00:15;20.80;1.00
2639;DHT22;1329;51.384;7.122;2023-07-16T06:02:42;20.80;1.00
2639;DHT22;1329;51.384;7.122;2023-07-16T06:05:09;20.80;1.00
2639;DHT22;1329;51.384;7.122;2023-07-16T06:07:36;20.90;1.00
2639;DHT22;1329;51.384;7.122;2023-07-16T06:10:04;20.90;1.00
2639;DHT22;1329;51.384;7.122;2023-07-16T06:12:32;20.90;1.00
2639;DHT22;1329;51.384;7.122;2023-07-16T06:14:58;20.90;1.00
2639;DHT22;1329;51.384;7.122;2023-07-16T06:17:27;20.90;1.00
2639;DHT22;1329;51.384;7.122;2023-07-16T06:19:54;21.00;1.00
2639;DHT22;1329;51.384;7.122;2023-07-16T06:22:21;20.90;1.00
2639;DHT22;1329;51.384;7.122;2023-07-16T06:24:48;20.90;1.00
2639;DHT22;1329;51.384;7.122;2023-07-16T06:27:15;21.00;1.00
2639;DHT22;1329;51.384;7.122;2023-07-16T06:29:42;21.00;1.00
2639;DHT22;1329;51.384;7.122;2023-07-16T06:32:09;21.00;1.00
2639;DHT22;1329;51.384;7.122;2023-07-16T06:34:38;21.00;1.00
2639;DHT22;1329;51.384;7.122;2023-07-16T06:37:05;21.00;1.00
2639;DHT22;1329;51.384;7.122;2023-07-16T06:39:32;21.00;1.00
2639;DHT22;1329;51.384;7.122;2023-07-16T06:42:00;21.10;1.00
2639;DHT22;1329;51.384;7.122;2023-07-16T06:44:27;21.10;1.00
2639;DHT22;1329;51.384;7.122;2023-07-16T06:46:53;21.10;1.00
2639;DHT22;1329;51.384;7.122;2023-07-16T06:49:21;21.10;1.00
2639;DHT22;1329;51.384;7.122;2023-07-16T06:51:49;21.20;1.00
2639;DHT22;1329;51.384;7.122;2023-07-16T06:54:16;21.20;1.00
2639;DHT22;1329;51.384;7.122;2023-07-16T06:56:43;21.20;1.00
2639;DHT22;1329;51.384;7.122;2023-07-16T06:59:10;21.20;1.00
2639;DHT22;1329;51.384;7.122;2023-07-16T07:01:37;21.20;1.00
2639;DHT22;1329;51.384;7.122;2023-07-16T07:04:04;21.20;1.00
2639;DHT22;1329;51.384;7.122;2023-07-16T07:06:31;21.20;1.00
2639;DHT22;1329;51.384;7.122;2023-07-16T07:09:00;21.20;1.00
2639;DHT22;1329;51.384;7.122;2023-07-16T07:11:27;21.20;1.00
2639;DHT22;1329;51.384;7.122;2023-07-16T07:13:54;21.20;1.00
2639;DHT22;1329;51.384;7.122;2023-07-16T07:16:22;21.20;1.00
2639;DHT22;1329;51.384;7.122;2023-07-16T07:18:49;21.20;1.00
2639;DHT22;1329;51.384;7.122;2023-07-16T07:21:16;21.20;1.00
2639;DHT22;1329;51.384;7.122;2023-07-16T07:23:43;21.20;1.00
2639;DHT22;1329;51.384;7.122;2023-07-16T07:26:11;21.20;1.00
2639;DHT22;1329;51.384;7.122;2023-07-16T07:28:38;21.20;1.00
2639;DHT22;1329;51.384;7.122;2023-07-16T07:31:05;21.30;1.00
2639;DHT22;1329;51.384;7.122;2023-07-16T07:33:32;21.30;1.00
2639;DHT22;1329;51.384;7.122;2023-07-16T07:35:59;21.20;1.00
2639;DHT22;1329;51.384;7.122;2023-07-16T07:38:26;21.30;1.00
2639;DHT22;1329;51.384;7.122;2023-07-16T07:40:54;21.30;1.00
2639;DHT22;1329;51.384;7.122;2023-07-16T07:43:22;21.30;1.00
2639;DHT22;1329;51.384;7.122;2023-07-16T07:45:49;21.40;1.00
2639;DHT22;1329;51.384;7.122;2023-07-16T07:48:16;21.40;1.00
2639;DHT22;1329;51.384;7.122;2023-07-16T07:50:43;21.50;1.00
2639;DHT22;1329;51.384;7.122;2023-07-16T07:53:09;21.50;1.00
2639;DHT22;1329;51.384;7.122;2023-07-16T07:55:36;21.50;1.00
2639;DHT22;1329;51.384;7.122;2023-07-16T07:58:03;21.50;1.00
2639;DHT22;1329;51.384;7.122;2023-07-16T08:00:31;21.50;1.00
2639;DHT22;1329;51.384;7.122;2023-07-16T08:02:58;21.60;1.00
2639;DHT22;1329;51.384;7.122;2023-07-16T08:05:25;21.60;1.00
2639;DHT22;1329;51.384;7.122;2023-07-16T08:07:52;21.60;1.00
2639;DHT22;1329;51.384;7.122;2023-07-16T08:10:21;21.70;1.00
2639;DHT22;1329;51.384;7.122;2023-07-16T08:12:48;21.70;1.00
2639;DHT22;1329;51.384;7.122;2023-07-16T08:15:15;21.80;1.00
2639;DHT22;1329;51.384;7.122;2023-07-16T08:17:44;21.80;1.00
2639;DHT22;1329;51.384;7.122;2023-07-16T08:20:12;21.90;1.00
2639;DHT22;1329;51.384;7.122;2023-07-16T08:22:39;21.90;1.00
2639;DHT22;1329;51.384;7.122;2023-07-16T08:25:07;21.90;1.00
2639;DHT22;1329;51.384;7.122;2023-07-16T08:27:35;21.90;1.00
2639;DHT22;1329;51.384;7.122;2023-07-16T08:30:02;22.00;1.00
2639;DHT22;1329;51.384;7.122;2023-07-16T08:32:29;22.00;1.00
2639;DHT22;1329;51.384;7.122;2023-07-16T08:34:57;22.10;1.00
2639;DHT22;1329;51.384;7.122;2023-07-16T08:37:24;22.10;1.00
2639;DHT22;1329;51.384;7.122;2023-07-16T08:39:52;22.20;1.00
2639;DHT22;1329;51.384;7.122;2023-07-16T08:42:19;22.20;1.00
2639;DHT22;1329;51.384;7.122;2023-07-16T08:44:47;22.30;1.00
2639;DHT22;1329;51.384;7.122;2023-07-16T08:47:15;22.40;1.00
2639;DHT22;1329;51.384;7.122;2023-07-16T08:49:54;22.40;1.00
2639;DHT22;1329;51.384;7.122;2023-07-16T08:52:23;22.40;1.00
2639;DHT22;1329;51.384;7.122;2023-07-16T08:54:50;22.50;1.00
2639;DHT22;1329;51.384;7.122;2023-07-16T08:57:17;22.50;1.00
2639;DHT22;1329;51.384;7.122;2023-07-16T08:59:47;22.50;1.00
2639;DHT22;1329;51.384;7.122;2023-07-16T09:02:15;22.50;1.00
2639;DHT22;1329;51.384;7.122;2023-07-16T09:04:43;22.60;1.00
2639;DHT22;1329;51.384;7.122;2023-07-16T09:07:10;22.60;1.00
2639;DHT22;1329;51.384;7.122;2023-07-16T09:09:39;22.70;1.00
2639;DHT22;1329;51.384;7.122;2023-07-16T09:12:10;22.80;1.00
2639;DHT22;1329;51.384;7.122;2023-07-16T09:14:38;22.90;1.00
2639;DHT22;1329;51.384;7.122;2023-07-16T09:17:07;23.10;1.00
2639;DHT22;1329;51.384;7.122;2023-07-16T09:19:34;23.30;1.00
2639;DHT22;1329;51.384;7.122;2023-07-16T09:22:01;23.60;1.00
2639;DHT22;1329;51.384;7.122;2023-07-16T09:24:29;23.70;1.00
2639;DHT22;1329;51.384;7.122;2023-07-16T09:26:57;23.90;1.00
2639;DHT22;1329;51.384;7.122;2023-07-16T09:29:27;23.90;1.00
2639;DHT22;1329;51.384;7.122;2023-07-16T09:31:54;24.00;1.00
2639;DHT22;1329;51.384;7.122;2023-07-16T09:34:22;24.10;1.00
2639;DHT22;1329;51.384;7.122;2023-07-16T09:36:49;24.30;1.00
2639;DHT22;1329;51.384;7.122;2023-07-16T09:39:17;24.60;1.00
2639;DHT22;1329;51.384;7.122;2023-07-16T09:41:45;25.00;1.00
2639;DHT22;1329;51.384;7.122;2023-07-16T09:44:15;25.30;1.00
2639;DHT22;1329;51.384;7.122;2023-07-16T09:46:44;25.60;1.00
2639;DHT22;1329;51.384;7.122;2023-07-16T09:49:11;25.80;1.00
2639;DHT22;1329;51.384;7.122;2023-07-16T09:51:41;25.90;1.00
2639;DHT22;1329;51.384;7.122;2023-07-16T09:54:12;25.90;1.00
2639;DHT22;1329;51.384;7.122;2023-07-16T09:56:41;25.90;1.00
2639;DHT22;1329;51.384;7.122;2023-07-16T09:59:14;25.80;1.00
2639;DHT22;1329;51.384;7.122;2023-07-16T10:01:43;25.60;1.00
2639;DHT22;1329;51.384;7.122;2023-07-16T10:04:12;25.50;1.00
2639;DHT22;1329;51.384;7.122;2023-07-16T10:06:53;25.30;1.00
2639;DHT22;1329;51.384;7.122;2023-07-16T10:09:35;25.20;1.00
2639;DHT22;1329;51.384;7.122;2023-07-16T10:12:13;25.10;1.00
2639;DHT22;1329;51.384;7.122;2023-07-16T10:14:43;25.10;1.00
2639;DHT22;1329;51.384;7.122;2023-07-16T10:17:15;25.00;1.00
2639;DHT22;1329;51.384;7.122;2023-07-16T10:19:49;25.00;1.00
2639;DHT22;1329;51.384;7.122;2023-07-16T10:22:18;25.00;1.00
2639;DHT22;1329;51.384;7.122;2023-07-16T10:24:51;25.00;1.00
2639;DHT22;1329;51.384;7.122;2023-07-16T10:27:30;25.00;1.00
2639;DHT22;1329;51.384;7.122;2023-07-16T10:30:00;25.00;1.00
2639;DHT22;1329;51.384;7.122;2023-07-16T10:32:32;25.00;1.00
2639;DHT22;1329;51.384;7.122;2023-07-16T10:35:00;25.00;1.00
2639;DHT22;1329;51.384;7.122;2023-07-16T10:37:28;25.00;1.00
2639;DHT22;1329;51.384;7.122;2023-07-16T10:39:57;25.00;1.00
2639;DHT22;1329;51.384;7.122;2023-07-16T10:42:26;25.00;1.00
2639;DHT22;1329;51.384;7.122;2023-07-16T10:44:54;25.00;1.00
2639;DHT22;1329;51.384;7.122;2023-07-16T10:47:30;24.90;1.00
2639;DHT22;1329;51.384;7.122;2023-07-16T10:49:57;24.90;1.00
2639;DHT22;1329;51.384;7.122;2023-07-16T10:52:26;24.90;1.00
2639;DHT22;1329;51.384;7.122;2023-07-16T10:54:52;24.90;1.00
2639;DHT22;1329;51.384;7.122;2023-07-16T10:57:20;24.90;1.00
2639;DHT22;1329;51.384;7.122;2023-07-16T10:59:48;24.90;1.00
2639;DHT22;1329;51.384;7.122;2023-07-16T11:02:16;24.80;1.00
2639;DHT22;1329;51.384;7.122;2023-07-16T11:04:46;24.80;1.00
2639;DHT22;1329;51.384;7.122;2023-07-16T11:07:14;24.80;1.00
2639;DHT22;1329;51.384;7.122;2023-07-16T11:09:42;24.80;1.00
2639;DHT22;1329;51.384;7.122;2023-07-16T11:12:10;24.90;1.00
2639;DHT22;1329;51.384;7.122;2023-07-16T11:14:39;24.90;1.00
2639;DHT22;1329;51.384;7.122;2023-07-16T11:17:11;24.90;1.00
2639;DHT22;1329;51.384;7.122;2023-07-16T11:19:39;25.00;1.00
2639;DHT22;1329;51.384;7.122;2023-07-16T11:22:10;25.10;1.00
2639;DHT22;1329;51.384;7.122;2023-07-16T11:24:38;25.20;1.00
2639;DHT22;1329;51.384;7.122;2023-07-16T11:27:12;25.30;1.00
2639;DHT22;1329;51.384;7.122;2023-07-16T11:29:40;25.30;1.00
2639;DHT22;1329;51.384;7.122;2023-07-16T11:32:11;25.40;1.00
2639;DHT22;1329;51.384;7.122;2023-07-16T11:34:50;25.50;1.00
2639;DHT22;1329;51.384;7.122;2023-07-16T11:37:19;25.60;1.00
2639;DHT22;1329;51.384;7.122;2023-07-16T11:39:47;25.70;1.00
2639;DHT22;1329;51.384;7.122;2023-07-16T11:42:18;25.80;1.00
2639;DHT22;1329;51.384;7.122;2023-07-16T11:44:49;25.80;1.00
2639;DHT22;1329;51.384;7.122;2023-07-16T11:47:17;25.90;1.00
2639;DHT22;1329;51.384;7.122;2023-07-16T11:49:44;26.00;1.00
2639;DHT22;1329;51.384;7.122;2023-07-16T11:52:11;26.00;1.00
2639;DHT22;1329;51.384;7.122;2023-07-16T11:54:40;26.10;1.00
2639;DHT22;1329;51.384;7.122;2023-07-16T11:57:07;26.10;1.00
2639;DHT22;1329;51.384;7.122;2023-07-16T11:59:34;26.00;1.00
2639;DHT22;1329;51.384;7.122;2023-07-16T12:02:01;26.00;1.00
2639;DHT22;1329;51.384;7.122;2023-07-16T12:04:28;26.00;1.00
2639;DHT22;1329;51.384;7.122;2023-07-16T12:06:55;25.90;1.00
2639;DHT22;1329;51.384;7.122;2023-07-16T12:09:22;25.90;1.00
2639;DHT22;1329;51.384;7.122;2023-07-16T12:11:50;25.80;1.00
2639;DHT22;1329;51.384;7.122;2023-07-16T12:14:18;25.80;1.00
2639;DHT22;1329;51.384;7.122;2023-07-16T12:16:44;25.70;1.00
2639;DHT22;1329;51.384;7.122;2023-07-16T12:19:11;25.70;1.00
2639;DHT22;1329;51.384;7.122;2023-07-16T12:21:38;25.70;1.00
2639;DHT22;1329;51.384;7.122;2023-07-16T12:24:05;25.60;1.00
2639;DHT22;1329;51.384;7.122;2023-07-16T12:26:32;25.50;1.00
2639;DHT22;1329;51.384;7.122;2023-07-16T12:29:01;25.50;1.00
2639;DHT22;1329;51.384;7.122;2023-07-16T12:31:29;25.50;1.00
2639;DHT22;1329;51.384;7.122;2023-07-16T12:33:57;25.40;1.00
2639;DHT22;1329;51.384;7.122;2023-07-16T12:36:24;25.50;1.00
2639;DHT22;1329;51.384;7.122;2023-07-16T12:38:51;25.50;1.00
2639;DHT22;1329;51.384;7.122;2023-07-16T12:41:18;25.60;1.00
2639;DHT22;1329;51.384;7.122;2023-07-16T12:43:46;25.60;1.00
2639;DHT22;1329;51.384;7.122;2023-07-16T12:46:14;25.70;1.00
2639;DHT22;1329;51.384;7.122;2023-07-16T12:48:41;25.80;1.00
2639;DHT22;1329;51.384;7.122;2023-07-16T12:51:08;25.80;1.00
2639;DHT22;1329;51.384;7.122;2023-07-16T12:53:36;25.90;1.00
2639;DHT22;1329;51.384;7.122;2023-07-16T12:56:04;26.00;1.00
2639;DHT22;1329;51.384;7.122;2023-07-16T12:58:31;26.00;1.00
2639;DHT22;1329;51.384;7.122;2023-07-16T13:00:58;26.10;1.00
2639;DHT22;1329;51.384;7.122;2023-07-16T13:03:29;26.10;1.00
2639;DHT22;1329;51.384;7.122;2023-07-16T13:05:56;26.20;1.00
2639;DHT22;1329;51.384;7.122;2023-07-16T13:08:22;26.20;1.00
2639;DHT22;1329;51.384;7.122;2023-07-16T13:10:49;26.30;1.00
2639;DHT22;1329;51.384;7.122;2023-07-16T13:13:16;26.30;1.00
2639;DHT22;1329;51.384;7.122;2023-07-16T13:15:43;26.30;1.00
2639;DHT22;1329;51.384;7.122;2023-07-16T13:18:10;26.50;1.00
2639;DHT22;1329;51.384;7.122;2023-07-16T13:20:39;26.60;1.00
2639;DHT22;1329;51.384;7.122;2023-07-16T13:23:06;26.80;1.00
2639;DHT22;1329;51.384;7.122;2023-07-16T13:25:33;26.90;1.00
2639;DHT22;1329;51.384;7.122;2023-07-16T13:28:01;26.90;1.00
2639;DHT22;1329;51.384;7.122;2023-07-16T13:30:28;27.00;1.00
2639;DHT22;1329;51.384;7.122;2023-07-16T13:32:55;27.10;1.00
2639;DHT22;1329;51.384;7.122;2023-07-16T13:35:22;27.20;1.00
2639;DHT22;1329;51.384;7.122;2023-07-16T13:37:50;27.30;1.00
2639;DHT22;1329;51.384;7.122;2023-07-16T13:40:17;27.30;1.00
2639;DHT22;1329;51.384;7.122;2023-07-16T13:42:45;27.30;1.00
2639;DHT22;1329;51.384;7.122;2023-07-16T13:45:12;27.30;1.00
2639;DHT22;1329;51.384;7.122;2023-07-16T13:47:39;27.30;1.00
2639;DHT22;1329;51.384;7.122;2023-07-16T13:50:06;27.20;1.00
2639;DHT22;1329;51.384;7.122;2023-07-16T13:52:34;27.10;1.00
2639;DHT22;1329;51.384;7.122;2023-07-16T13:55:02;27.10;1.00
2639;DHT22;1329;51.384;7.122;2023-07-16T13:57:30;27.00;1.00
2639;DHT22;1329;51.384;7.122;2023-07-16T13:59:56;27.00;1.00
2639;DHT22;1329;51.384;7.122;2023-07-16T14:02:23;27.00;1.00
2639;DHT22;1329;51.384;7.122;2023-07-16T14:04:50;27.10;1.00
2639;DHT22;1329;51.384;7.122;2023-07-16T14:07:17;27.00;1.00
2639;DHT22;1329;51.384;7.122;2023-07-16T14:09:44;27.00;1.00
2639;DHT22;1329;51.384;7.122;2023-07-16T14:12:12;27.00;1.00
2639;DHT22;1329;51.384;7.122;2023-07-16T14:14:39;27.00;1.00
2639;DHT22;1329;51.384;7.122;2023-07-16T14:17:06;26.90;1.00
2639;DHT22;1329;51.384;7.122;2023-07-16T14:19:33;26.80;1.00
2639;DHT22;1329;51.384;7.122;2023-07-16T14:22:00;26.80;1.00
2639;DHT22;1329;51.384;7.122;2023-07-16T14:24:26;26.70;1.00
2639;DHT22;1329;51.384;7.122;2023-07-16T14:26:53;26.60;1.00
2639;DHT22;1329;51.384;7.122;2023-07-16T14:29:25;26.60;1.00
2639;DHT22;1329;51.384;7.122;2023-07-16T14:31:54;26.50;1.00
2639;DHT22;1329;51.384;7.122;2023-07-16T14:34:21;26.40;1.00
2639;DHT22;1329;51.384;7.122;2023-07-16T14:36:48;26.40;1.00
2639;DHT22;1329;51.384;7.122;2023-07-16T14:39:15;26.30;1.00
2639;DHT22;1329;51.384;7.122;2023-07-16T14:41:42;26.20;1.00
2639;DHT22;1329;51.384;7.122;2023-07-16T14:44:10;26.10;1.00
2639;DHT22;1329;51.384;7.122;2023-07-16T14:46:39;26.00;1.00
2639;DHT22;1329;51.384;7.122;2023-07-16T14:49:10;26.00;1.00
2639;DHT22;1329;51.384;7.122;2023-07-16T14:51:37;26.00;1.00
2639;DHT22;1329;51.384;7.122;2023-07-16T14:54:06;25.90;1.00
2639;DHT22;1329;51.384;7.122;2023-07-16T14:56:33;26.00;1.00
2639;DHT22;1329;51.384;7.122;2023-07-16T14:59:01;26.00;1.00
2639;DHT22;1329;51.384;7.122;2023-07-16T15:01:28;26.10;1.00
2639;DHT22;1329;51.384;7.122;2023-07-16T15:03:56;26.10;1.00
2639;DHT22;1329;51.384;7.122;2023-07-16T15:06:23;26.20;1.00
2639;DHT22;1329;51.384;7.122;2023-07-16T15:08:51;26.20;1.00
2639;DHT22;1329;51.384;7.122;2023-07-16T15:11:18;26.20;1.00
2639;DHT22;1329;51.384;7.122;2023-07-16T15:13:45;26.30;1.00
2639;DHT22;1329;51.384;7.122;2023-07-16T15:16:11;26.30;1.00
2639;DHT22;1329;51.384;7.122;2023-07-16T15:18:40;26.40;1.00
2639;DHT22;1329;51.384;7.122;2023-07-16T15:21:12;26.50;1.00
2639;DHT22;1329;51.384;7.122;2023-07-16T15:23:43;26.60;1.00
2639;DHT22;1329;51.384;7.122;2023-07-16T15:26:11;26.70;1.00
2639;DHT22;1329;51.384;7.122;2023-07-16T15:28:38;26.60;1.00
2639;DHT22;1329;51.384;7.122;2023-07-16T15:31:08;26.70;1.00
2639;DHT22;1329;51.384;7.122;2023-07-16T15:33:37;26.60;1.00
2639;DHT22;1329;51.384;7.122;2023-07-16T15:36:04;26.50;1.00
2639;DHT22;1329;51.384;7.122;2023-07-16T15:38:33;26.40;1.00
2639;DHT22;1329;51.384;7.122;2023-07-16T15:41:00;26.30;1.00
2639;DHT22;1329;51.384;7.122;2023-07-16T15:43:27;26.20;1.00
2639;DHT22;1329;51.384;7.122;2023-07-16T15:45:55;26.10;1.00
2639;DHT22;1329;51.384;7.122;2023-07-16T15:48:24;26.00;1.00
2639;DHT22;1329;51.384;7.122;2023-07-16T15:50:56;25.90;1.00
2639;DHT22;1329;51.384;7.122;2023-07-16T15:53:24;26.00;1.00
2639;DHT22;1329;51.384;7.122;2023-07-16T15:55:53;25.90;1.00
2639;DHT22;1329;51.384;7.122;2023-07-16T15:58:20;26.00;1.00
2639;DHT22;1329;51.384;7.122;2023-07-16T16:00:47;26.10;1.00
2639;DHT22;1329;51.384;7.122;2023-07-16T16:03:15;26.10;1.00
2639;DHT22;1329;51.384;7.122;2023-07-16T16:05:42;26.10;1.00
2639;DHT22;1329;51.384;7.122;2023-07-16T16:08:11;26.20;1.00
2639;DHT22;1329;51.384;7.122;2023-07-16T16:10:40;26.20;1.00
2639;DHT22;1329;51.384;7.122;2023-07-16T16:13:11;26.20;1.00
2639;DHT22;1329;51.384;7.122;2023-07-16T16:15:39;26.20;1.00
2639;DHT22;1329;51.384;7.122;2023-07-16T16:18:06;26.20;1.00
2639;DHT22;1329;51.384;7.122;2023-07-16T16:20:33;26.20;1.00
2639;DHT22;1329;51.384;7.122;2023-07-16T16:23:00;26.30;1.00